Lasterketa: lezamako_mugetatik_K_M_BERTIkAL (mendia)

Imprimir
   

SAILKAPENAK OROKORRA

PARTAIDE IRTEERA HELMUGA DENBORA DOR. LIZENTZIA MAILA HERRIA
joseba plagaro rodriguez00:58:5401:23:3300:24:39193 T Senior_Gizonak sodupe
diego pascual alcalde01:02:1501:26:2100:24:06122 E Senior_Gizonak bilbao
hodei samaniego bouso01:03:1301:27:0600:23:5375  Senior_Gizonak sestao
aitor ayo atela01:03:2401:28:0600:24:4299  Senior_Gizonak mungia
ander villanueva piedrabuena01:04:3701:31:1900:26:427 E Senior_Gizonak basauri
danel sagarduy gonzalez01:04:3801:30:3900:26:0129  Senior_Gizonak galdakao
victor bernedo  royuela01:05:0301:28:1100:23:0873 Z Senior_Gizonak elorrio
borja garcia ,01:05:1201:31:3600:26:2498  Senior_Gizonak amorebieta
gorka loroño ortiz01:05:3901:33:4700:28:0821  Senior_Gizonak bilbo
ruben midon maza01:05:4301:31:5200:26:091  Senior_Gizonak bilbo
axier lopez de aberasturi lopez de gereñu01:05:5601:31:2500:25:29154 E Senior_Gizonak agurain
jonathan sierra sierra01:06:0501:31:2500:25:20109 L Senior_Gizonak santoña
imanol egia etxearte01:06:3601:33:1000:26:34141  Senior_Gizonak fruiz
oier villarreal arizmendiarrieta01:07:0301:33:3900:26:36176  Senior_Gizonak amorebieta- etxano
aitor mentxaka robles01:07:2501:33:2500:26:0057  Senior_Gizonak mungia
iñaki guinea ibargutxi01:07:3001:36:0400:28:34157 E Senior_Gizonak ugao
josu caño estalayo01:09:0901:35:0500:25:56181  Senior_Gizonak barakaldo
jon betolaza beloki01:10:2601:36:4500:26:19129  Senior_Gizonak bilbo
isaac perez millan01:11:0101:38:4800:27:47168  Senior_Gizonak lezama
gorka amuriza gumucio01:11:5001:38:5800:27:0835  Senior_Gizonak erandio goikoa
borja anta couso01:11:5301:41:0600:29:1351  Senior_Gizonak bilbo
ivan de juan gutierrez01:12:1201:38:5800:26:4689  Senior_Gizonak villasana de mena
asier oleaga rapp01:12:2701:40:4500:28:1888  Senior_Gizonak algorta
jose luis de juan gutierrez01:13:2201:42:0800:28:46127  Beteranoa_Gizonak lenaza de mena
alexander hernandez selgaw01:13:2401:41:1500:27:51170  Senior_Gizonak muskiz
alex sarandeses sainz-aja01:13:3301:43:1100:29:3812  Senior_Gizonak basauri
unai conde san martin01:13:3701:43:0200:29:25179  Senior_Gizonak barakaldo
jorge enrique martinez01:13:4701:43:4100:29:5496  Senior_Gizonak santurtzi
aimar lasa gonzalez 01:13:5301:41:1500:27:22103  Senior_Gizonak portugalete
joseba bermejo aurrekoetxea01:15:1501:44:1200:28:57147 A Senior_Gizonak derio
javier del rio luengas01:15:2601:43:4900:28:23134  Senior_Gizonak villasuso de mena
pello gerrikaetxebarria san anton01:15:5601:43:3100:27:3567  Senior_Gizonak zornotza
koldo diaz aguilella01:16:2701:40:5600:24:2926 E Senior_Gizonak etxebarri
gorka castañeda lopez01:16:3901:47:1200:30:33151 E Senior_Gizonak abamto
javi martinez blanco01:17:2501:46:0600:28:4119  Senior_Gizonak bilbao
axier urresti rivero01:17:3101:46:0500:28:34115  Senior_Gizonak vitoria gasteiz
alizia olazabal donato de lopez01:17:4101:45:3000:27:4979 E Beteranoa_Emakumeak irun
raul templado millan01:17:4401:46:0400:28:2011  Senior_Gizonak madrid
david alvarez uriarte01:17:4901:43:3500:25:46187  Senior_Gizonak galdakao
oscar erez de ulate01:17:5201:48:3400:30:42108  Senior_Gizonak bersngo
josu millan lopez01:17:5701:46:3400:28:37140 E Beteranoa_Gizonak larrabetzu
xabier perez saenz de azkunaga01:18:0401:47:2000:29:16171  Senior_Gizonak las arenas
xabier urruticoechea apraiz01:18:0601:49:3600:31:30190  Senior_Gizonak usansolo
eneko sanchez fernandez01:18:1301:49:3000:31:17155  Senior_Gizonak bilbao
mikeldi garcia saldamando01:18:2601:47:0100:28:3532 E Senior_Gizonak sondika
sebastien chassagne velasco01:18:3301:47:0100:28:2810  Senior_Gizonak bilbao
joseba inoriza bustamante01:18:3301:50:2400:31:51148  Senior_Gizonak castro urdiales
oscar rodriguez casado01:18:4801:49:0900:30:21197  Beteranoa_Gizonak etxebarri
david san  juan01:19:0201:48:0000:28:58102  Senior_Gizonak bilbao
josu lotina gaubeka01:19:0401:50:1800:31:14144  Beteranoa_Gizonak meñaka
mikeldi solana buruaga01:19:1901:47:4300:28:2470 E Senior_Gizonak bilbao
lander san roman fuldain01:19:2001:48:5700:29:3730 M Senior_Gizonak mungia
fernando rueda garcia01:19:2101:51:1900:31:58194 M Senior_Gizonak torrelavega
juan ignacio tieno hormaza01:19:2201:49:4900:30:2750 E Senior_Gizonak leioa
alex etxebarria artetxe01:19:2701:49:2300:29:566  Beteranoa_Gizonak lezama
gorka viteri valle01:19:3101:49:5700:30:26167  Senior_Gizonak bilbao
imanol arenaza madariaga01:19:3201:49:2300:29:5154 E Senior_Gizonak bilbao
eneko lejarraga etxebarria01:19:3201:51:5100:32:19188  Senior_Gizonak larrabetzu
andoni diaz ramos01:19:3601:50:2400:30:48152 E Senior_Gizonak santurtzi
roberto tapia caro01:19:5001:52:4300:32:53116  Beteranoa_Gizonak etxebarri
jose-miguel corcuera manso01:20:2701:53:2700:33:00173 E Beteranoa_Gizonak zamudio
asier gorostiaga nanclares01:20:3801:49:4100:29:03121  Senior_Gizonak mungia
javier garcia laza01:20:5001:50:2700:29:3737  Beteranoa_Gizonak muskiz
david saez de ibarra ocio01:20:5601:54:0000:33:04137 E Beteranoa_Gizonak vitoria-gasteiz
julian martinez guzman01:20:5901:52:1400:31:1527  Senior_Gizonak getxo
mikel lasa imaz01:21:0001:52:4000:31:4039  Beteranoa_Gizonak getxo
ugaitz unanue arrea01:21:0901:53:3200:32:2384  Senior_Gizonak derio
jose david rodriguez gonzalez01:21:1601:52:1100:30:5597  Senior_Gizonak amorebieta
egoitz aretxaga aurrekoetxea01:21:4101:52:4300:31:02139  Senior_Gizonak etxebarri
xabier escurza perez01:21:5101:53:1800:31:27120  Senior_Gizonak sestao
peter meso perez01:22:2101:53:0500:30:4446  Beteranoa_Gizonak getxo
iñigo pereda ,01:22:4401:56:5900:34:15135  Senior_Gizonak bilbao
sendoa martinez septien01:22:4401:58:0400:35:2049  Senior_Gizonak bilbao
garazi sampedro arando01:22:4601:54:3500:31:495 E Senior_Emakumeak atxondo
miguel angel goti apraiz01:22:4701:55:1300:32:2617  Beteranoa_Gizonak lezama
miguel urquijo calleja01:22:5901:52:1900:29:2014  Beteranoa_Gizonak berango
asier castrillo sainz de murieta01:23:0401:53:1800:30:1440  Senior_Gizonak bilbao
beñat ormazabal ,01:23:0401:57:2800:34:24145  Senior_Gizonak getxo
aitor beitia igartua01:23:1501:54:0000:30:4592 E Senior_Gizonak oñati
iñaki garcia abasolo01:23:1801:55:0000:31:4262 E Beteranoa_Gizonak gernika
ariadna peñaranda garolera01:23:1901:56:3200:33:13164 M Senior_Emakumeak bilbao
ander naberan otegi01:23:3501:57:3000:33:55124 E Senior_Gizonak ea
jon telletxea lopez de luzuriaga01:23:4101:49:0900:25:28150  Senior_Gizonak ea
pedro pujana ortue01:23:5201:57:2000:33:2886  Beteranoa_Gizonak bermeo
antonio salinas moraga01:23:5301:58:4900:34:5615 M Senior_Gizonak bilbao
hegoi gonzalez martinez01:24:0601:56:1400:32:08130  Senior_Gizonak derio
urko cano cano 01:24:0701:56:0400:31:57131  Senior_Gizonak gorliz
iker solorzano landa01:24:2501:57:3200:33:07146  Senior_Gizonak algorta
ibon escolar garcia de madinabeitia 01:24:2601:57:3800:33:1259  Senior_Gizonak bilbao
eneko urain arrizabalaga01:24:5001:55:4100:30:51182  Senior_Gizonak eibar
elzbieta jaromirska -01:24:5101:56:5200:32:0136 M Senior_Emakumeak entrambasaguas
jose manuel barquin tomeo01:25:0301:57:4800:32:45118  Beteranoa_Gizonak selaya
endika soria elizondo01:25:5401:58:5400:33:00159  Senior_Gizonak galdakao
borja sanchez abrisqueta01:25:5501:58:5100:32:56166  Senior_Gizonak bilbao
josu mugertza arangiz01:26:0902:00:1800:34:0948 E Senior_Gizonak getxo
xabier goikouria lekerika01:26:1102:00:1800:34:0720  Senior_Gizonak lezama
laura carrillo soto01:26:3802:02:5000:36:12123 E Beteranoa_Emakumeak bilbao
jean sylvain martinez roux01:26:3802:01:1700:34:3941 E Beteranoa_Gizonak getxo
manu prior moreno01:27:0502:00:0300:32:58158 M Senior_Gizonak berango
sergio villa perez01:27:1202:01:3400:34:2295  Senior_Gizonak bilbao
isusko oribe bastero01:27:1402:01:4000:34:26128  Beteranoa_Gizonak bilbao
alberto fontecha heras01:28:2502:01:4000:33:1542  Beteranoa_Gizonak bilbao
nerea martinez dominguez01:28:3402:03:4700:35:132  Senior_Emakumeak lloret de mar
negu garcia yarza01:28:4001:59:5300:31:13199  Senior_Gizonak larrabetzu
gorka jauregi zelaia01:28:4001:59:4900:31:09200  Senior_Gizonak larrabetzu
iker villa modaluniz01:28:4301:59:5400:31:11198  Senior_Gizonak larrabetzu
ekaitz duñabeitia arribas01:28:4502:01:3100:32:46142  Senior_Gizonak igorre
mikel cuenca herrero01:28:5002:00:5400:32:04175  Senior_Gizonak atxondo
eder arribas petralanda01:28:5002:01:1700:32:27111 E Senior_Gizonak lemoa
irantzu chinchetru ,01:29:1902:02:1100:32:5269  Beteranoa_Emakumeak vitoria
placido baia noya01:29:2202:03:3900:34:1774  Beteranoa_Gizonak lezama
iokin de bernedo larrabeiti01:30:0202:01:2100:31:19132  Beteranoa_Gizonak leioa
sergio guitierrez guitierrez01:30:0602:04:3500:34:29105  Senior_Gizonak reinosa
sergio jorrin garcia01:30:0602:05:3300:35:27106  Senior_Gizonak castro urdiales
alberto ortiz rodriguez01:30:5102:01:0300:30:1271  Senior_Gizonak portugalete
ricardo cirarda acha01:30:5702:08:2600:37:29107  Beteranoa_Gizonak sopelana
javier san millan pavon01:31:0802:05:5300:34:45191  Senior_Gizonak leioa
antonio leon gonzalez01:31:0902:05:5200:34:43133  Senior_Gizonak portugalete
sergio escribano ruiz01:31:2702:07:0400:35:3761  Senior_Gizonak laudio
gorka gil estepar01:31:4602:09:5200:38:06100 E Senior_Gizonak urduliz
itxaso nieto ortiz01:31:4802:05:5700:34:0978  Senior_Emakumeak bilbao
joseba astarloa eguiguren01:31:4902:11:0100:39:1272  Senior_Gizonak artziniega
asier arregui fresneda01:32:0102:07:3600:35:3564 E Senior_Gizonak etxebarri
ekain mateo arnoso01:32:1102:09:0500:36:5491 E Senior_Gizonak erandio
borja santiago ortuzar01:32:1502:01:2700:29:1228 E Senior_Gizonak zornotza
jesus landeta padrones01:32:4502:09:5700:37:1277  Senior_Gizonak bilbao
iñigo gallastegi petralanda01:32:4602:07:5600:35:10153  Beteranoa_Gizonak dima
jose maria blanco martin01:33:1202:09:2000:36:08180  Beteranoa_Gizonak erandio
jose antonio otero limia01:33:1502:14:2600:41:11156  Beteranoa_Gizonak ermua
alberto godoy gomez01:33:3302:10:2000:36:47172  Senior_Gizonak lezama
eneritz alkorta lejarreta01:33:3602:11:1500:37:39113 E Senior_Emakumeak atxondo
kimetz kortazar zenikaonandia01:33:4202:10:4700:37:05178 M Senior_Gizonak atxondo
oscar aguion suaÑez01:33:4202:12:1100:38:2983  Senior_Gizonak sopela
asier tristantxo intxausti01:33:4602:09:5800:36:12112  Senior_Gizonak lezama
mark anderson ,01:33:4602:09:4900:36:0322  Senior_Gizonak a coruña
raul lozano logo01:34:1202:13:0700:38:55165  Senior_Gizonak gallarta
paula marcos escribano01:34:2802:09:5500:35:2752  Senior_Emakumeak basauri
nelson  rodrigues  pires01:34:4302:10:3300:35:5033 M Senior_Gizonak mungia
rubén martínez gonzález01:35:2202:14:2800:39:06143  Senior_Gizonak bilbao
gonzalo ruiz sanchez01:36:3502:15:3200:38:5760  Senior_Gizonak leioa
jose maria garcia cosgaya01:36:3902:13:4500:37:06177 A Beteranoa_Gizonak vitoria-gasteiz
javier hernando diez01:37:4802:17:4700:39:59195 A Beteranoa_Gizonak portugalete
pablo daniel mateos jorna01:38:1302:17:5000:39:37196  Beteranoa_Gizonak portugalete
amaia san miguel arenaza01:39:0302:19:3800:40:35114 M Beteranoa_Emakumeak portugalete
f.javier alonso alonso01:39:1702:19:4000:40:2394  Beteranoa_Gizonak madrid
txabi ahedo ,01:39:3302:18:3100:38:5882  Senior_Gizonak bilbao
lander alvarez de eulate martin01:40:0402:17:5500:37:51163  Senior_Gizonak sopela
elias urkixo ibarretxe01:40:0402:15:4600:35:42138  Beteranoa_Gizonak gordexola
jose ignacio landaluce jorrin01:40:0502:20:3200:40:2758  Beteranoa_Gizonak galdakao
egoitz bidaurrazabal layuno01:40:0802:18:3800:38:30162  Senior_Gizonak laberretzu
koro lasa imaz01:40:4002:18:2500:37:4545  Beteranoa_Emakumeak sopela
sergio pascual calvo01:41:1802:22:1200:40:54160 M Senior_Gizonak bilbao
sergio piñeiro busto01:41:2202:25:1100:43:4916  Senior_Gizonak leioa
juan peraita fernandez01:41:2602:18:3400:37:08126  Senior_Gizonak soto de la marina
manuel ruiloba franco01:41:2602:18:3300:37:07125  Senior_Gizonak cobreces
laura diez gonzalez01:41:3402:21:5700:40:2368  Senior_Emakumeak astrabudua
alexander kaltxakorta elorriaga01:44:3102:27:1700:42:469  Senior_Gizonak etxebarri
aritz santos perez01:44:3502:27:1500:42:408  Senior_Gizonak etxebarri
asier isasti castillo01:45:1102:27:1100:42:0093 E Senior_Gizonak bilbo
jose manuel olano bilbao01:45:1802:22:2300:37:05192 Z Beteranoa_Gizonak lezama
javier garcia jaca01:48:0202:29:5700:41:5581 E Beteranoa_Gizonak santurtzi
jesus mateo castañeda01:50:2702:32:1400:41:4790 E Beteranoa_Gizonak erandio
alberto azumendi rivas01:51:2402:32:3700:41:1376 M Beteranoa_Gizonak getxo
iñaki zubiaurre mendiolea01:51:5102:32:0400:40:1331 M Beteranoa_Gizonak eibar
santiago zubiaga garcia01:52:1202:37:1900:45:07136  Beteranoa_Gizonak laukiz


Inprimatu | Ikusi Orokorra Partzialak